Hauptseite
METAR-TAF:

METAR-TAF

Flughäfen :

Zeltweg, Österreich

Fliegerhorst Hinterstoisser

Breite: 47-12N, Länge: 014-45E, Höhe: 677 m

Beobachtung

Neuester Wetterbericht von vor 14 Minuten, um 18:50 UTC
Wind 2 kt aus unterschiedlichen Richtungen
Temperatur 4°C
Luftfeuchtigkeit 81%
Luftdruck 1015 hPa

METAR: LOXZ 211850Z VRB02KT 10KM FEW050SC BKN060SC 04/01 Q1015 NOSIG

Zeit: 20:04 (19:04 UTC)

Prognose

Neuester Wetterbericht von vor 4 Stunden und 49 Minuten, um 14:15 UTC
Gültige Prognose vom 21 um 15 UTC bis 21 um 24 UTC
Wind 3 kt aus unterschiedlichen Richtungen
Sichtweite 10 km oder mehr
Leicht bewölkt in der Höhe von 5000 ft
Aufgelockert bewölkt in der Höhe von 6000 ft
Durchbrochene Bewölkung in der Höhe von 9000 ft
Übergehend zu
vom 21 um 21 UTC bis 21 um 23 UTC
Leicht bewölkt in der Höhe von 6000 ft

TAF: LOXZ 211415Z 2115/2124 VRB03KT 9999 FEW050 SCT060 BKN090 BECMG 2121/2123 FEW060

Wetterbeobachtungen und Prognosen von mehr als 4000 Flughäfen (METAR und TAF Bericht).

Die verfügbaren Stationen werden durch gelbe und rote Markierungen auf der Karte dargestellt.

Führen Sie die Maus auf sie, um den Namen der Station zu sehen.

Darauf klicken, um die Beobachtung von Wetterbeobachtungen und Prognosen zu sehen.

Um die Karte zu ändern : klicken Sie auf den grünen Tasten mit einem schwarzen Kreuz Zum Vergrößern, auf den grünen Button mit einem Gedankenstrich zu verkleinern, oder auf die grünen Pfeile für benachbarte Karten.


METAR-TAF: